sensor_id;sensor_type;location;lat;lon;timestamp;temperature;humidity
326;DHT22;150;52.352;14.058;2022-12-18T00:00:05;-2.00;43.60
326;DHT22;150;52.352;14.058;2022-12-18T00:02:32;-1.90;43.60
326;DHT22;150;52.352;14.058;2022-12-18T00:04:59;-1.90;43.00
326;DHT22;150;52.352;14.058;2022-12-18T00:07:26;-1.90;42.80
326;DHT22;150;52.352;14.058;2022-12-18T00:09:54;-2.10;42.40
326;DHT22;150;52.352;14.058;2022-12-18T00:12:24;-2.30;43.00
326;DHT22;150;52.352;14.058;2022-12-18T00:14:51;-2.30;43.10
326;DHT22;150;52.352;14.058;2022-12-18T00:17:18;-2.30;43.20
326;DHT22;150;52.352;14.058;2022-12-18T00:19:45;-2.30;43.70
326;DHT22;150;52.352;14.058;2022-12-18T00:22:12;-2.40;44.10
326;DHT22;150;52.352;14.058;2022-12-18T00:24:39;-2.40;44.10
326;DHT22;150;52.352;14.058;2022-12-18T00:27:07;-2.40;44.10
326;DHT22;150;52.352;14.058;2022-12-18T00:29:34;-2.50;44.00
326;DHT22;150;52.352;14.058;2022-12-18T00:32:00;-2.50;44.00
326;DHT22;150;52.352;14.058;2022-12-18T00:34:27;-2.70;43.80
326;DHT22;150;52.352;14.058;2022-12-18T00:36:54;-2.60;44.20
326;DHT22;150;52.352;14.058;2022-12-18T00:39:20;-2.70;44.50
326;DHT22;150;52.352;14.058;2022-12-18T00:41:47;-2.80;44.50
326;DHT22;150;52.352;14.058;2022-12-18T00:44:33;-2.80;44.80
326;DHT22;150;52.352;14.058;2022-12-18T00:47:02;-2.70;45.10
326;DHT22;150;52.352;14.058;2022-12-18T00:49:28;-2.60;45.30
326;DHT22;150;52.352;14.058;2022-12-18T00:51:55;-2.60;44.40
326;DHT22;150;52.352;14.058;2022-12-18T00:54:22;-2.50;44.70
326;DHT22;150;52.352;14.058;2022-12-18T00:56:49;-2.60;43.90
326;DHT22;150;52.352;14.058;2022-12-18T00:59:16;-2.60;44.40
326;DHT22;150;52.352;14.058;2022-12-18T01:01:45;-2.50;44.40
326;DHT22;150;52.352;14.058;2022-12-18T01:04:12;-2.40;44.10
326;DHT22;150;52.352;14.058;2022-12-18T01:06:38;-2.30;43.70
326;DHT22;150;52.352;14.058;2022-12-18T01:09:05;-2.40;43.40
326;DHT22;150;52.352;14.058;2022-12-18T01:11:32;-2.40;43.40
326;DHT22;150;52.352;14.058;2022-12-18T01:13:58;-2.40;44.40
326;DHT22;150;52.352;14.058;2022-12-18T01:16:25;-2.30;43.70
326;DHT22;150;52.352;14.058;2022-12-18T01:18:54;-2.20;43.70
326;DHT22;150;52.352;14.058;2022-12-18T01:21:22;-2.20;43.20
326;DHT22;150;52.352;14.058;2022-12-18T01:23:51;-2.10;43.40
326;DHT22;150;52.352;14.058;2022-12-18T01:26:19;-2.10;42.40
326;DHT22;150;52.352;14.058;2022-12-18T01:28:46;-2.30;42.20
326;DHT22;150;52.352;14.058;2022-12-18T01:31:19;-2.20;43.20
326;DHT22;150;52.352;14.058;2022-12-18T01:33:46;-2.20;43.20
326;DHT22;150;52.352;14.058;2022-12-18T01:36:18;-2.10;43.20
326;DHT22;150;52.352;14.058;2022-12-18T01:38:45;-2.10;42.90
326;DHT22;150;52.352;14.058;2022-12-18T01:41:13;-2.00;42.50
326;DHT22;150;52.352;14.058;2022-12-18T01:43:47;-2.00;42.80
326;DHT22;150;52.352;14.058;2022-12-18T01:46:17;-1.90;42.90
326;DHT22;150;52.352;14.058;2022-12-18T01:48:47;-1.90;42.80
326;DHT22;150;52.352;14.058;2022-12-18T01:51:18;-1.80;42.30
326;DHT22;150;52.352;14.058;2022-12-18T01:53:46;-1.80;42.00
326;DHT22;150;52.352;14.058;2022-12-18T01:56:15;-1.90;41.50
326;DHT22;150;52.352;14.058;2022-12-18T01:58:50;-1.80;41.80
326;DHT22;150;52.352;14.058;2022-12-18T02:01:20;-1.90;41.10
326;DHT22;150;52.352;14.058;2022-12-18T02:03:48;-1.90;41.10
326;DHT22;150;52.352;14.058;2022-12-18T02:06:19;-1.90;40.80
326;DHT22;150;52.352;14.058;2022-12-18T02:09:00;-2.00;41.70
326;DHT22;150;52.352;14.058;2022-12-18T02:11:37;-2.00;40.90
326;DHT22;150;52.352;14.058;2022-12-18T02:14:16;-1.90;41.00
326;DHT22;150;52.352;14.058;2022-12-18T02:16:51;-2.00;40.90
326;DHT22;150;52.352;14.058;2022-12-18T02:19:37;-2.00;40.80
326;DHT22;150;52.352;14.058;2022-12-18T02:22:19;-2.20;40.70
326;DHT22;150;52.352;14.058;2022-12-18T02:24:59;-2.20;41.50
326;DHT22;150;52.352;14.058;2022-12-18T02:27:30;-2.20;41.30
326;DHT22;150;52.352;14.058;2022-12-18T02:30:01;-2.10;41.30
326;DHT22;150;52.352;14.058;2022-12-18T02:32:34;-2.10;41.40
326;DHT22;150;52.352;14.058;2022-12-18T02:35:04;-2.00;41.30
326;DHT22;150;52.352;14.058;2022-12-18T02:37:33;-2.10;40.70
326;DHT22;150;52.352;14.058;2022-12-18T02:40:03;-2.10;40.60
326;DHT22;150;52.352;14.058;2022-12-18T02:42:32;-2.30;40.10
326;DHT22;150;52.352;14.058;2022-12-18T02:45:00;-2.40;40.70
326;DHT22;150;52.352;14.058;2022-12-18T02:47:29;-2.40;41.30
326;DHT22;150;52.352;14.058;2022-12-18T02:50:04;-2.40;41.40
326;DHT22;150;52.352;14.058;2022-12-18T02:52:39;-2.40;41.80
326;DHT22;150;52.352;14.058;2022-12-18T02:55:18;-2.40;41.50
326;DHT22;150;52.352;14.058;2022-12-18T02:57:53;-2.40;41.40
326;DHT22;150;52.352;14.058;2022-12-18T03:00:24;-2.30;41.60
326;DHT22;150;52.352;14.058;2022-12-18T03:02:57;-2.30;41.50
326;DHT22;150;52.352;14.058;2022-12-18T03:05:31;-2.20;41.70
326;DHT22;150;52.352;14.058;2022-12-18T03:08:02;-2.20;41.80
326;DHT22;150;52.352;14.058;2022-12-18T03:10:34;-2.10;41.60
326;DHT22;150;52.352;14.058;2022-12-18T03:13:05;-2.10;41.00
326;DHT22;150;52.352;14.058;2022-12-18T03:15:37;-2.00;41.00
326;DHT22;150;52.352;14.058;2022-12-18T03:18:12;-2.10;40.70
326;DHT22;150;52.352;14.058;2022-12-18T03:20:43;-2.10;40.80
326;DHT22;150;52.352;14.058;2022-12-18T03:23:15;-2.00;40.90
326;DHT22;150;52.352;14.058;2022-12-18T03:25:44;-2.00;40.90
326;DHT22;150;52.352;14.058;2022-12-18T03:28:15;-2.00;40.60
326;DHT22;150;52.352;14.058;2022-12-18T03:30:44;-2.00;41.10
326;DHT22;150;52.352;14.058;2022-12-18T03:33:14;-2.00;40.90
326;DHT22;150;52.352;14.058;2022-12-18T03:35:43;-2.00;40.80
326;DHT22;150;52.352;14.058;2022-12-18T03:38:11;-1.90;40.60
326;DHT22;150;52.352;14.058;2022-12-18T03:40:45;-1.90;40.60
326;DHT22;150;52.352;14.058;2022-12-18T03:43:20;-1.90;40.50
326;DHT22;150;52.352;14.058;2022-12-18T03:45:53;-2.10;40.30
326;DHT22;150;52.352;14.058;2022-12-18T03:48:27;-2.10;41.20
326;DHT22;150;52.352;14.058;2022-12-18T03:50:57;-2.00;41.10
326;DHT22;150;52.352;14.058;2022-12-18T03:53:33;-2.00;41.00
326;DHT22;150;52.352;14.058;2022-12-18T03:56:05;-2.00;40.80
326;DHT22;150;52.352;14.058;2022-12-18T03:58:36;-1.90;40.70
326;DHT22;150;52.352;14.058;2022-12-18T04:01:07;-2.00;40.50
326;DHT22;150;52.352;14.058;2022-12-18T04:03:36;-2.00;40.40
326;DHT22;150;52.352;14.058;2022-12-18T04:06:04;-1.90;40.10
326;DHT22;150;52.352;14.058;2022-12-18T04:08:32;-1.90;40.00
326;DHT22;150;52.352;14.058;2022-12-18T04:11:00;-2.00;40.20
326;DHT22;150;52.352;14.058;2022-12-18T04:13:29;-2.00;40.00
326;DHT22;150;52.352;14.058;2022-12-18T04:15:57;-1.90;40.70
326;DHT22;150;52.352;14.058;2022-12-18T04:18:24;-1.90;40.20
326;DHT22;150;52.352;14.058;2022-12-18T04:20:51;-1.90;40.30
326;DHT22;150;52.352;14.058;2022-12-18T04:23:17;-2.00;40.00
326;DHT22;150;52.352;14.058;2022-12-18T04:25:44;-2.10;40.00
326;DHT22;150;52.352;14.058;2022-12-18T04:28:11;-2.20;40.30
326;DHT22;150;52.352;14.058;2022-12-18T04:30:38;-2.30;40.60
326;DHT22;150;52.352;14.058;2022-12-18T04:33:09;-2.30;41.10
326;DHT22;150;52.352;14.058;2022-12-18T04:35:36;-2.40;41.30
326;DHT22;150;52.352;14.058;2022-12-18T04:38:03;-2.40;41.20
326;DHT22;150;52.352;14.058;2022-12-18T04:40:29;-2.40;41.70
326;DHT22;150;52.352;14.058;2022-12-18T04:42:56;-2.40;41.70
326;DHT22;150;52.352;14.058;2022-12-18T04:45:23;-2.50;41.50
326;DHT22;150;52.352;14.058;2022-12-18T04:47:49;-2.50;41.70
326;DHT22;150;52.352;14.058;2022-12-18T04:50:17;-2.50;42.00
326;DHT22;150;52.352;14.058;2022-12-18T04:52:44;-2.50;41.80
326;DHT22;150;52.352;14.058;2022-12-18T04:55:10;-2.50;41.70
326;DHT22;150;52.352;14.058;2022-12-18T04:57:37;-2.40;41.70
326;DHT22;150;52.352;14.058;2022-12-18T05:00:04;-2.40;41.50
326;DHT22;150;52.352;14.058;2022-12-18T05:02:31;-2.50;41.40
326;DHT22;150;52.352;14.058;2022-12-18T05:04:58;-2.50;41.60
326;DHT22;150;52.352;14.058;2022-12-18T05:07:26;-2.40;42.00
326;DHT22;150;52.352;14.058;2022-12-18T05:09:52;-2.40;42.00
326;DHT22;150;52.352;14.058;2022-12-18T05:12:19;-2.40;41.80
326;DHT22;150;52.352;14.058;2022-12-18T05:14:46;-2.40;41.70
326;DHT22;150;52.352;14.058;2022-12-18T05:17:12;-2.40;41.80
326;DHT22;150;52.352;14.058;2022-12-18T05:19:39;-2.50;41.60
326;DHT22;150;52.352;14.058;2022-12-18T05:22:05;-2.60;42.10
326;DHT22;150;52.352;14.058;2022-12-18T05:24:34;-2.60;42.70
326;DHT22;150;52.352;14.058;2022-12-18T05:27:00;-2.70;43.20
326;DHT22;150;52.352;14.058;2022-12-18T05:29:27;-2.80;43.70
326;DHT22;150;52.352;14.058;2022-12-18T05:31:54;-2.70;43.80
326;DHT22;150;52.352;14.058;2022-12-18T05:34:20;-2.70;43.80
326;DHT22;150;52.352;14.058;2022-12-18T05:36:47;-2.70;43.80
326;DHT22;150;52.352;14.058;2022-12-18T05:39:14;-2.60;43.90
326;DHT22;150;52.352;14.058;2022-12-18T05:41:42;-2.60;43.60
326;DHT22;150;52.352;14.058;2022-12-18T05:44:08;-2.50;43.40
326;DHT22;150;52.352;14.058;2022-12-18T05:46:36;-2.40;43.20
326;DHT22;150;52.352;14.058;2022-12-18T05:49:02;-2.50;42.90
326;DHT22;150;52.352;14.058;2022-12-18T05:51:29;-2.60;43.30
326;DHT22;150;52.352;14.058;2022-12-18T05:53:56;-2.60;43.90
326;DHT22;150;52.352;14.058;2022-12-18T05:56:23;-2.50;44.00
326;DHT22;150;52.352;14.058;2022-12-18T05:58:53;-2.40;44.10
326;DHT22;150;52.352;14.058;2022-12-18T06:01:23;-2.40;43.80
326;DHT22;150;52.352;14.058;2022-12-18T06:03:49;-2.30;44.00
326;DHT22;150;52.352;14.058;2022-12-18T06:06:18;-2.20;43.40
326;DHT22;150;52.352;14.058;2022-12-18T06:08:46;-2.10;43.20
326;DHT22;150;52.352;14.058;2022-12-18T06:11:15;-2.20;42.70
326;DHT22;150;52.352;14.058;2022-12-18T06:13:42;-2.30;43.10
326;DHT22;150;52.352;14.058;2022-12-18T06:16:10;-2.40;43.30
326;DHT22;150;52.352;14.058;2022-12-18T06:18:37;-2.40;43.80
326;DHT22;150;52.352;14.058;2022-12-18T06:21:04;-2.40;44.10
326;DHT22;150;52.352;14.058;2022-12-18T06:23:30;-2.40;44.10
326;DHT22;150;52.352;14.058;2022-12-18T06:25:57;-2.40;44.10
326;DHT22;150;52.352;14.058;2022-12-18T06:28:24;-2.60;43.90
326;DHT22;150;52.352;14.058;2022-12-18T06:30:50;-2.60;45.10
326;DHT22;150;52.352;14.058;2022-12-18T06:33:19;-2.50;45.20
326;DHT22;150;52.352;14.058;2022-12-18T06:35:46;-2.50;44.80
326;DHT22;150;52.352;14.058;2022-12-18T06:38:13;-2.50;45.00
326;DHT22;150;52.352;14.058;2022-12-18T06:40:39;-2.40;45.40
326;DHT22;150;52.352;14.058;2022-12-18T06:43:06;-2.40;45.00
326;DHT22;150;52.352;14.058;2022-12-18T06:45:33;-2.30;45.20
326;DHT22;150;52.352;14.058;2022-12-18T06:48:00;-2.20;44.90
326;DHT22;150;52.352;14.058;2022-12-18T06:50:28;-2.30;44.40
326;DHT22;150;52.352;14.058;2022-12-18T06:52:54;-2.20;44.20
326;DHT22;150;52.352;14.058;2022-12-18T06:55:22;-2.20;44.40
326;DHT22;150;52.352;14.058;2022-12-18T06:57:48;-2.00;44.60
326;DHT22;150;52.352;14.058;2022-12-18T07:00:15;-2.00;44.40
326;DHT22;150;52.352;14.058;2022-12-18T07:02:42;-2.00;44.20
326;DHT22;150;52.352;14.058;2022-12-18T07:05:09;-2.00;44.40
326;DHT22;150;52.352;14.058;2022-12-18T07:07:37;-1.90;44.00
326;DHT22;150;52.352;14.058;2022-12-18T07:10:04;-1.90;43.90
326;DHT22;150;52.352;14.058;2022-12-18T07:12:31;-1.90;43.70
326;DHT22;150;52.352;14.058;2022-12-18T07:14:57;-1.90;43.90
326;DHT22;150;52.352;14.058;2022-12-18T07:17:24;-1.90;43.30
326;DHT22;150;52.352;14.058;2022-12-18T07:19:51;-2.00;43.90
326;DHT22;150;52.352;14.058;2022-12-18T07:22:17;-2.00;44.10
326;DHT22;150;52.352;14.058;2022-12-18T07:24:46;-2.00;44.40
326;DHT22;150;52.352;14.058;2022-12-18T07:27:12;-2.00;44.00
326;DHT22;150;52.352;14.058;2022-12-18T07:29:39;-2.00;44.40
326;DHT22;150;52.352;14.058;2022-12-18T07:32:05;-1.90;44.50
326;DHT22;150;52.352;14.058;2022-12-18T07:34:34;-2.00;44.40
326;DHT22;150;52.352;14.058;2022-12-18T07:37:01;-1.90;44.50
326;DHT22;150;52.352;14.058;2022-12-18T07:39:28;-2.00;44.20
326;DHT22;150;52.352;14.058;2022-12-18T07:41:56;-2.20;44.20
326;DHT22;150;52.352;14.058;2022-12-18T07:44:40;-2.20;44.20
326;DHT22;150;52.352;14.058;2022-12-18T07:47:07;-2.10;44.60
326;DHT22;150;52.352;14.058;2022-12-18T07:49:33;-2.30;44.10
326;DHT22;150;52.352;14.058;2022-12-18T07:52:00;-2.30;45.10
326;DHT22;150;52.352;14.058;2022-12-18T07:54:27;-2.20;45.20
326;DHT22;150;52.352;14.058;2022-12-18T07:56:56;-2.20;45.00
326;DHT22;150;52.352;14.058;2022-12-18T07:59:22;-2.20;45.30
326;DHT22;150;52.352;14.058;2022-12-18T08:01:49;-2.00;45.80
326;DHT22;150;52.352;14.058;2022-12-18T08:04:16;-1.90;45.60
326;DHT22;150;52.352;14.058;2022-12-18T08:06:42;-1.90;45.00
326;DHT22;150;52.352;14.058;2022-12-18T08:09:10;-2.00;44.40
326;DHT22;150;52.352;14.058;2022-12-18T08:11:36;-2.00;44.40
326;DHT22;150;52.352;14.058;2022-12-18T08:14:05;-2.00;44.40
326;DHT22;150;52.352;14.058;2022-12-18T08:16:31;-2.00;44.40
326;DHT22;150;52.352;14.058;2022-12-18T08:18:58;-1.90;44.50
326;DHT22;150;52.352;14.058;2022-12-18T08:21:25;-1.90;44.50
326;DHT22;150;52.352;14.058;2022-12-18T08:23:54;-1.90;44.50
326;DHT22;150;52.352;14.058;2022-12-18T08:26:21;-1.90;44.50
326;DHT22;150;52.352;14.058;2022-12-18T08:28:48;-1.80;44.60
326;DHT22;150;52.352;14.058;2022-12-18T08:31:17;-1.70;44.60
326;DHT22;150;52.352;14.058;2022-12-18T08:33:44;-1.60;44.70
326;DHT22;150;52.352;14.058;2022-12-18T08:36:10;-1.50;44.80
326;DHT22;150;52.352;14.058;2022-12-18T08:38:37;-1.50;43.80
326;DHT22;150;52.352;14.058;2022-12-18T08:41:06;-1.60;43.50
326;DHT22;150;52.352;14.058;2022-12-18T08:43:33;-1.50;44.60
326;DHT22;150;52.352;14.058;2022-12-18T08:46:34;-1.40;44.10
326;DHT22;150;52.352;14.058;2022-12-18T08:49:03;-1.40;44.00
326;DHT22;150;52.352;14.058;2022-12-18T08:51:31;-1.30;44.00
326;DHT22;150;52.352;14.058;2022-12-18T08:53:57;-1.40;43.70
326;DHT22;150;52.352;14.058;2022-12-18T08:56:24;-1.50;43.40
326;DHT22;150;52.352;14.058;2022-12-18T08:58:52;-1.40;43.80
326;DHT22;150;52.352;14.058;2022-12-18T09:01:19;-1.40;43.80
326;DHT22;150;52.352;14.058;2022-12-18T09:03:47;-1.40;43.30
326;DHT22;150;52.352;14.058;2022-12-18T09:06:14;-1.40;43.60
326;DHT22;150;52.352;14.058;2022-12-18T09:08:41;-1.40;43.60
326;DHT22;150;52.352;14.058;2022-12-18T09:11:12;-1.40;43.20
326;DHT22;150;52.352;14.058;2022-12-18T09:13:39;-1.30;44.40
326;DHT22;150;52.352;14.058;2022-12-18T09:16:06;-1.40;43.40
326;DHT22;150;52.352;14.058;2022-12-18T09:18:35;-1.40;43.20
326;DHT22;150;52.352;14.058;2022-12-18T09:21:09;-1.60;43.10
326;DHT22;150;52.352;14.058;2022-12-18T09:23:36;-1.70;43.40
326;DHT22;150;52.352;14.058;2022-12-18T09:26:03;-1.70;44.30
326;DHT22;150;52.352;14.058;2022-12-18T09:28:30;-1.60;45.40
326;DHT22;150;52.352;14.058;2022-12-18T09:30:56;-1.40;44.90
326;DHT22;150;52.352;14.058;2022-12-18T09:33:23;-1.30;45.00
326;DHT22;150;52.352;14.058;2022-12-18T09:35:50;-1.10;45.10
326;DHT22;150;52.352;14.058;2022-12-18T09:38:19;-1.00;44.10
326;DHT22;150;52.352;14.058;2022-12-18T09:40:48;-0.90;43.10
326;DHT22;150;52.352;14.058;2022-12-18T09:43:17;-0.90;42.60
326;DHT22;150;52.352;14.058;2022-12-18T09:45:47;-1.10;42.20
326;DHT22;150;52.352;14.058;2022-12-18T09:48:18;-1.00;42.80
326;DHT22;150;52.352;14.058;2022-12-18T09:50:46;-1.00;42.70
326;DHT22;150;52.352;14.058;2022-12-18T09:53:16;-1.00;42.70
326;DHT22;150;52.352;14.058;2022-12-18T09:55:46;-0.90;42.10
326;DHT22;150;52.352;14.058;2022-12-18T09:58:17;-0.90;41.40
326;DHT22;150;52.352;14.058;2022-12-18T10:00:45;-0.90;41.40
326;DHT22;150;52.352;14.058;2022-12-18T10:03:14;-0.90;41.70
326;DHT22;150;52.352;14.058;2022-12-18T10:05:46;-0.80;42.10
326;DHT22;150;52.352;14.058;2022-12-18T10:08:20;-0.70;42.40
326;DHT22;150;52.352;14.058;2022-12-18T10:10:52;-0.70;41.40
326;DHT22;150;52.352;14.058;2022-12-18T10:13:24;-0.70;41.30
326;DHT22;150;52.352;14.058;2022-12-18T10:16:03;-0.70;41.10
326;DHT22;150;52.352;14.058;2022-12-18T10:18:53;-0.90;41.30
326;DHT22;150;52.352;14.058;2022-12-18T10:21:23;-0.80;41.60
326;DHT22;150;52.352;14.058;2022-12-18T10:24:00;-0.80;41.20
326;DHT22;150;52.352;14.058;2022-12-18T10:26:31;-0.80;41.30
326;DHT22;150;52.352;14.058;2022-12-18T10:28:59;-0.80;41.40
326;DHT22;150;52.352;14.058;2022-12-18T10:31:26;-0.70;41.40
326;DHT22;150;52.352;14.058;2022-12-18T10:33:54;-0.60;40.90
326;DHT22;150;52.352;14.058;2022-12-18T10:36:22;-0.70;40.40
326;DHT22;150;52.352;14.058;2022-12-18T10:38:50;-0.80;40.40
326;DHT22;150;52.352;14.058;2022-12-18T10:41:26;-1.00;40.20
326;DHT22;150;52.352;14.058;2022-12-18T10:44:20;-1.10;40.80
326;DHT22;150;52.352;14.058;2022-12-18T10:46:50;-1.10;41.10
326;DHT22;150;52.352;14.058;2022-12-18T10:49:24;-1.30;41.10
326;DHT22;150;52.352;14.058;2022-12-18T10:52:11;-1.20;42.20
326;DHT22;150;52.352;14.058;2022-12-18T10:54:47;-1.30;41.90
326;DHT22;150;52.352;14.058;2022-12-18T10:57:16;-1.40;42.20
326;DHT22;150;52.352;14.058;2022-12-18T10:59:52;-1.30;42.60
326;DHT22;150;52.352;14.058;2022-12-18T11:02:27;-1.30;42.30
326;DHT22;150;52.352;14.058;2022-12-18T11:04:56;-1.50;42.60
326;DHT22;150;52.352;14.058;2022-12-18T11:07:23;-1.50;43.40
326;DHT22;150;52.352;14.058;2022-12-18T11:10:02;-1.50;43.40
326;DHT22;150;52.352;14.058;2022-12-18T11:12:29;-1.40;43.90
326;DHT22;150;52.352;14.058;2022-12-18T11:14:58;-1.30;44.00
326;DHT22;150;52.352;14.058;2022-12-18T11:17:30;-1.20;43.90
326;DHT22;150;52.352;14.058;2022-12-18T11:19:58;-1.30;42.80
326;DHT22;150;52.352;14.058;2022-12-18T11:22:27;-1.40;42.40
326;DHT22;150;52.352;14.058;2022-12-18T11:24:57;-1.60;42.80
326;DHT22;150;52.352;14.058;2022-12-18T11:27:25;-1.60;44.70
326;DHT22;150;52.352;14.058;2022-12-18T11:29:52;-1.50;44.80
326;DHT22;150;52.352;14.058;2022-12-18T11:32:32;-1.20;45.00
326;DHT22;150;52.352;14.058;2022-12-18T11:35:04;-1.40;43.50
326;DHT22;150;52.352;14.058;2022-12-18T11:37:36;-1.20;43.40
326;DHT22;150;52.352;14.058;2022-12-18T11:40:09;-1.20;43.00
326;DHT22;150;52.352;14.058;2022-12-18T11:42:44;-1.20;43.10
326;DHT22;150;52.352;14.058;2022-12-18T11:45:26;-1.10;43.20
326;DHT22;150;52.352;14.058;2022-12-18T11:47:58;-1.00;42.80
326;DHT22;150;52.352;14.058;2022-12-18T11:50:29;-1.00;42.00
326;DHT22;150;52.352;14.058;2022-12-18T11:52:57;-0.90;42.00
326;DHT22;150;52.352;14.058;2022-12-18T11:55:32;-0.80;41.70
326;DHT22;150;52.352;14.058;2022-12-18T11:58:08;-0.90;41.30
326;DHT22;150;52.352;14.058;2022-12-18T12:00:43;-0.80;41.40
326;DHT22;150;52.352;14.058;2022-12-18T12:03:22;-0.80;41.10
326;DHT22;150;52.352;14.058;2022-12-18T12:06:00;-0.60;41.40
326;DHT22;150;52.352;14.058;2022-12-18T12:08:37;-0.60;40.90
326;DHT22;150;52.352;14.058;2022-12-18T12:11:16;-0.50;41.20
326;DHT22;150;52.352;14.058;2022-12-18T12:13:54;-0.40;40.60
326;DHT22;150;52.352;14.058;2022-12-18T12:16:29;-0.40;40.10
326;DHT22;150;52.352;14.058;2022-12-18T12:19:12;-0.50;40.40
326;DHT22;150;52.352;14.058;2022-12-18T12:21:43;-0.40;40.30
326;DHT22;150;52.352;14.058;2022-12-18T12:24:24;-0.50;40.40
326;DHT22;150;52.352;14.058;2022-12-18T12:27:02;-0.60;40.40
326;DHT22;150;52.352;14.058;2022-12-18T12:29:41;-0.70;40.90
326;DHT22;150;52.352;14.058;2022-12-18T12:32:21;-0.60;41.30
326;DHT22;150;52.352;14.058;2022-12-18T12:34:59;-0.60;40.70
326;DHT22;150;52.352;14.058;2022-12-18T12:37:38;-0.50;41.10
326;DHT22;150;52.352;14.058;2022-12-18T12:40:06;-0.40;40.60
326;DHT22;150;52.352;14.058;2022-12-18T12:42:42;-0.30;40.60
326;DHT22;150;52.352;14.058;2022-12-18T12:45:31;-0.40;40.20
326;DHT22;150;52.352;14.058;2022-12-18T12:48:02;-0.40;40.20
326;DHT22;150;52.352;14.058;2022-12-18T12:50:33;-0.50;40.40
326;DHT22;150;52.352;14.058;2022-12-18T12:53:01;-0.40;40.90
326;DHT22;150;52.352;14.058;2022-12-18T12:55:32;-0.50;40.50
326;DHT22;150;52.352;14.058;2022-12-18T12:58:06;-0.50;40.50
326;DHT22;150;52.352;14.058;2022-12-18T13:00:41;-0.70;40.40
326;DHT22;150;52.352;14.058;2022-12-18T13:03:16;-0.60;41.20
326;DHT22;150;52.352;14.058;2022-12-18T13:05:50;-0.60;41.10
326;DHT22;150;52.352;14.058;2022-12-18T13:08:25;-0.60;40.50
326;DHT22;150;52.352;14.058;2022-12-18T13:10:54;-0.60;40.80
326;DHT22;150;52.352;14.058;2022-12-18T13:13:53;-0.60;41.20
326;DHT22;150;52.352;14.058;2022-12-18T13:16:21;-0.70;41.00
326;DHT22;150;52.352;14.058;2022-12-18T13:18:50;-0.70;41.30
326;DHT22;150;52.352;14.058;2022-12-18T13:21:23;-0.70;41.60
326;DHT22;150;52.352;14.058;2022-12-18T13:23:53;-0.70;42.00
326;DHT22;150;52.352;14.058;2022-12-18T13:26:33;-0.80;41.50
326;DHT22;150;52.352;14.058;2022-12-18T13:29:02;-0.70;41.90
326;DHT22;150;52.352;14.058;2022-12-18T13:34:33;-0.90;41.10
326;DHT22;150;52.352;14.058;2022-12-18T13:43:33;-1.20;41.90
326;DHT22;150;52.352;14.058;2022-12-18T13:46:17;-1.20;43.20
326;DHT22;150;52.352;14.058;2022-12-18T13:48:51;-1.20;44.10
326;DHT22;150;52.352;14.058;2022-12-18T13:51:19;-1.30;43.40
326;DHT22;150;52.352;14.058;2022-12-18T13:53:50;-1.40;43.90
326;DHT22;150;52.352;14.058;2022-12-18T13:56:22;-1.40;44.10
326;DHT22;150;52.352;14.058;2022-12-18T13:59:11;-1.20;44.50
326;DHT22;150;52.352;14.058;2022-12-18T14:01:42;-1.20;43.40
326;DHT22;150;52.352;14.058;2022-12-18T14:04:10;-1.10;43.70
326;DHT22;150;52.352;14.058;2022-12-18T14:06:37;-1.20;43.10
326;DHT22;150;52.352;14.058;2022-12-18T14:09:04;-1.30;43.00
326;DHT22;150;52.352;14.058;2022-12-18T14:11:33;-1.50;43.90
326;DHT22;150;52.352;14.058;2022-12-18T14:13:59;-1.60;44.30
326;DHT22;150;52.352;14.058;2022-12-18T14:16:27;-1.70;44.60
326;DHT22;150;52.352;14.058;2022-12-18T14:18:56;-1.70;44.60
326;DHT22;150;52.352;14.058;2022-12-18T14:21:25;-1.60;45.40
326;DHT22;150;52.352;14.058;2022-12-18T14:24:12;-1.50;44.80
326;DHT22;150;52.352;14.058;2022-12-18T14:26:41;-1.50;44.40
326;DHT22;150;52.352;14.058;2022-12-18T14:29:22;-1.70;44.50
326;DHT22;150;52.352;14.058;2022-12-18T14:32:10;-1.90;44.50
326;DHT22;150;52.352;14.058;2022-12-18T14:34:38;-1.90;44.90
326;DHT22;150;52.352;14.058;2022-12-18T14:37:05;-1.80;45.20
326;DHT22;150;52.352;14.058;2022-12-18T14:39:32;-1.80;44.60
326;DHT22;150;52.352;14.058;2022-12-18T14:42:00;-1.80;44.60
326;DHT22;150;52.352;14.058;2022-12-18T14:44:27;-1.70;44.70
326;DHT22;150;52.352;14.058;2022-12-18T14:46:54;-1.70;44.60
326;DHT22;150;52.352;14.058;2022-12-18T14:49:26;-1.70;44.60
326;DHT22;150;52.352;14.058;2022-12-18T14:51:54;-1.70;44.60
326;DHT22;150;52.352;14.058;2022-12-18T14:54:23;-1.60;44.70
326;DHT22;150;52.352;14.058;2022-12-18T14:56:52;-1.70;44.50
326;DHT22;150;52.352;14.058;2022-12-18T14:59:25;-1.70;44.60
326;DHT22;150;52.352;14.058;2022-12-18T15:01:58;-1.70;44.60
326;DHT22;150;52.352;14.058;2022-12-18T15:04:28;-1.70;44.70
326;DHT22;150;52.352;14.058;2022-12-18T15:07:08;-1.70;44.70
326;DHT22;150;52.352;14.058;2022-12-18T15:09:37;-1.80;44.60
326;DHT22;150;52.352;14.058;2022-12-18T15:12:05;-1.90;43.90
326;DHT22;150;52.352;14.058;2022-12-18T15:14:38;-2.10;44.60
326;DHT22;150;52.352;14.058;2022-12-18T15:17:12;-2.00;44.60
326;DHT22;150;52.352;14.058;2022-12-18T15:19:42;-2.10;44.30
326;DHT22;150;52.352;14.058;2022-12-18T15:22:18;-2.10;44.30
326;DHT22;150;52.352;14.058;2022-12-18T15:24:45;-2.00;44.40
326;DHT22;150;52.352;14.058;2022-12-18T15:27:21;-2.00;44.40
326;DHT22;150;52.352;14.058;2022-12-18T15:30:22;-1.90;44.50
326;DHT22;150;52.352;14.058;2022-12-18T15:32:50;-1.80;43.60
326;DHT22;150;52.352;14.058;2022-12-18T15:35:22;-1.80;42.80
326;DHT22;150;52.352;14.058;2022-12-18T15:37:50;-1.70;42.80
326;DHT22;150;52.352;14.058;2022-12-18T15:40:19;-1.60;43.00
326;DHT22;150;52.352;14.058;2022-12-18T15:42:47;-1.50;43.00
326;DHT22;150;52.352;14.058;2022-12-18T15:45:33;-1.40;42.40
326;DHT22;150;52.352;14.058;2022-12-18T15:48:01;-1.40;41.70
326;DHT22;150;52.352;14.058;2022-12-18T15:50:28;-1.40;41.10
326;DHT22;150;52.352;14.058;2022-12-18T15:52:56;-1.50;41.40
326;DHT22;150;52.352;14.058;2022-12-18T15:55:24;-1.60;41.80
326;DHT22;150;52.352;14.058;2022-12-18T15:58:10;-1.60;41.70
326;DHT22;150;52.352;14.058;2022-12-18T16:00:39;-1.80;42.20
326;DHT22;150;52.352;14.058;2022-12-18T16:03:08;-1.80;42.20
326;DHT22;150;52.352;14.058;2022-12-18T16:05:36;-1.90;42.40
326;DHT22;150;52.352;14.058;2022-12-18T16:08:04;-2.00;42.10
326;DHT22;150;52.352;14.058;2022-12-18T16:10:32;-2.20;42.80
326;DHT22;150;52.352;14.058;2022-12-18T16:13:00;-2.20;43.40
326;DHT22;150;52.352;14.058;2022-12-18T16:15:27;-2.40;43.30
326;DHT22;150;52.352;14.058;2022-12-18T16:17:56;-2.40;44.10
326;DHT22;150;52.352;14.058;2022-12-18T16:20:23;-2.40;44.10
326;DHT22;150;52.352;14.058;2022-12-18T16:22:51;-2.30;44.10
326;DHT22;150;52.352;14.058;2022-12-18T16:25:20;-2.20;44.20
326;DHT22;150;52.352;14.058;2022-12-18T16:27:48;-2.40;43.50
326;DHT22;150;52.352;14.058;2022-12-18T16:30:16;-2.40;43.60
326;DHT22;150;52.352;14.058;2022-12-18T16:32:44;-2.40;44.10
326;DHT22;150;52.352;14.058;2022-12-18T16:35:14;-2.50;44.00
326;DHT22;150;52.352;14.058;2022-12-18T16:37:42;-2.60;43.90
326;DHT22;150;52.352;14.058;2022-12-18T16:40:12;-2.60;44.10
326;DHT22;150;52.352;14.058;2022-12-18T16:42:41;-2.70;44.10
326;DHT22;150;52.352;14.058;2022-12-18T16:45:10;-2.70;44.60